createdAt,value
2023-04-02T00:00:30.892Z,990.79
2023-04-02T00:01:30.832Z,990.76
2023-04-02T00:02:31.064Z,990.79
2023-04-02T00:03:30.904Z,990.80
2023-04-02T00:04:30.814Z,990.78
2023-04-02T00:05:30.840Z,990.81
2023-04-02T00:06:30.775Z,990.85
2023-04-02T00:07:30.878Z,990.86
2023-04-02T00:08:30.760Z,990.98
2023-04-02T00:09:30.739Z,990.99
2023-04-02T00:10:30.733Z,990.98
2023-04-02T00:11:30.753Z,991.03
2023-04-02T00:12:30.705Z,991.02
2023-04-02T00:13:30.691Z,991.05
2023-04-02T00:14:30.672Z,991.09
2023-04-02T00:15:30.666Z,991.13
2023-04-02T00:16:30.752Z,991.16
2023-04-02T00:17:30.635Z,991.20
2023-04-02T00:18:30.662Z,991.13
2023-04-02T00:19:30.627Z,991.21
2023-04-02T00:20:30.631Z,991.20
2023-04-02T00:21:30.659Z,991.25
2023-04-02T00:22:30.631Z,991.20
2023-04-02T00:23:30.569Z,991.29
2023-04-02T00:24:30.565Z,991.33
2023-04-02T00:25:30.585Z,991.32
2023-04-02T00:26:30.547Z,991.30
2023-04-02T00:27:30.562Z,991.35
2023-04-02T00:28:30.520Z,991.39
2023-04-02T00:29:30.516Z,991.36
2023-04-02T00:30:30.505Z,991.41
2023-04-02T00:31:30.490Z,991.41
2023-04-02T00:32:30.550Z,991.45
2023-04-02T00:33:30.466Z,991.43
2023-04-02T00:34:30.477Z,991.43
2023-04-02T00:35:30.442Z,991.42
2023-04-02T00:36:30.440Z,991.44
2023-04-02T00:37:30.429Z,991.47
2023-04-02T00:38:30.428Z,991.48
2023-04-02T00:39:30.418Z,991.49
2023-04-02T00:40:30.380Z,991.47
2023-04-02T00:41:30.364Z,991.52
2023-04-02T00:42:30.354Z,991.54
2023-04-02T00:43:30.341Z,991.60
2023-04-02T00:44:30.377Z,991.64
2023-04-02T00:45:30.314Z,991.73
2023-04-02T00:46:30.362Z,991.71
2023-04-02T00:47:30.327Z,991.78
2023-04-02T00:48:30.289Z,991.73
2023-04-02T00:49:30.273Z,991.82
2023-04-02T00:50:30.294Z,991.75
2023-04-02T00:51:30.244Z,991.79
2023-04-02T00:52:30.246Z,991.78
2023-04-02T00:53:30.300Z,991.79
2023-04-02T00:54:30.232Z,991.82
2023-04-02T00:55:30.204Z,991.83
2023-04-02T00:56:30.216Z,991.91
2023-04-02T00:57:30.227Z,991.85
2023-04-02T00:58:30.176Z,991.88
2023-04-02T00:59:30.182Z,991.88
2023-04-02T01:00:30.185Z,991.93
2023-04-02T01:01:30.170Z,991.92
2023-04-02T01:02:30.241Z,991.92
2023-04-02T01:03:30.375Z,991.92
2023-04-02T01:04:30.110Z,991.91
2023-04-02T01:05:30.072Z,991.95
2023-04-02T01:06:30.073Z,991.95
2023-04-02T01:07:30.087Z,992.06
2023-04-02T01:08:30.056Z,992.02
2023-04-02T01:09:30.041Z,992.04
2023-04-02T01:10:30.069Z,992.01
2023-04-02T01:11:30.000Z,992.01
2023-04-02T01:12:30.038Z,992.09
2023-04-02T01:13:29.998Z,992.08
2023-04-02T01:14:29.987Z,992.15
2023-04-02T01:15:29.995Z,992.16
2023-04-02T01:16:30.030Z,992.21
2023-04-02T01:17:29.960Z,992.17
2023-04-02T01:18:29.932Z,992.20
2023-04-02T01:19:29.912Z,992.20
2023-04-02T01:20:29.915Z,992.22
2023-04-02T01:21:29.922Z,992.29
2023-04-02T01:22:29.898Z,992.26
2023-04-02T01:23:29.883Z,992.25
2023-04-02T01:24:29.860Z,992.33
2023-04-02T01:25:29.848Z,992.29
2023-04-02T01:26:29.889Z,992.34
2023-04-02T01:27:29.838Z,992.29
2023-04-02T01:28:29.801Z,992.38
2023-04-02T01:29:29.809Z,992.35
2023-04-02T01:30:29.783Z,992.40
2023-04-02T01:31:29.819Z,992.46
2023-04-02T01:32:29.837Z,992.46
2023-04-02T01:33:29.752Z,992.45
2023-04-02T01:34:29.744Z,992.47
2023-04-02T01:35:29.723Z,992.49
2023-04-02T01:36:29.704Z,992.53
2023-04-02T01:37:29.768Z,992.58
2023-04-02T01:38:29.702Z,992.61
2023-04-02T01:39:29.701Z,992.61
2023-04-02T01:40:29.652Z,992.61
2023-04-02T01:41:29.648Z,992.69
2023-04-02T01:42:29.697Z,992.68
2023-04-02T01:43:29.673Z,992.72
2023-04-02T01:44:29.630Z,992.70
2023-04-02T01:45:29.618Z,992.77
2023-04-02T01:46:29.674Z,992.81
2023-04-02T01:47:29.663Z,992.78
2023-04-02T01:48:29.601Z,992.84
2023-04-02T01:49:29.551Z,992.82
2023-04-02T01:50:29.560Z,992.91
2023-04-02T01:51:29.544Z,992.89
2023-04-02T01:52:29.531Z,992.89
2023-04-02T01:53:29.574Z,992.95
2023-04-02T01:54:29.502Z,992.91
2023-04-02T01:55:29.531Z,992.94
2023-04-02T01:56:29.472Z,992.94
2023-04-02T01:57:29.568Z,993.01
2023-04-02T01:58:29.450Z,992.98
2023-04-02T01:59:29.447Z,993.03
2023-04-02T02:00:29.493Z,993.04
2023-04-02T02:01:29.431Z,993.03
2023-04-02T02:02:29.482Z,993.07
2023-04-02T02:03:29.434Z,993.05
2023-04-02T02:04:29.394Z,993.13
2023-04-02T02:05:29.368Z,993.11
2023-04-02T02:06:29.384Z,993.10
2023-04-02T02:07:29.340Z,993.14
2023-04-02T02:08:29.372Z,993.17
2023-04-02T02:09:29.327Z,993.18
2023-04-02T02:10:29.317Z,993.18
2023-04-02T02:11:29.338Z,993.24
2023-04-02T02:12:29.295Z,993.23
2023-04-02T02:13:29.298Z,993.22
2023-04-02T02:14:29.306Z,993.23
2023-04-02T02:15:29.269Z,993.33
2023-04-02T02:16:29.296Z,993.31
2023-04-02T02:17:29.285Z,993.31
2023-04-02T02:18:29.243Z,993.35
2023-04-02T02:19:29.261Z,993.44
2023-04-02T02:20:29.209Z,993.34
2023-04-02T02:21:29.259Z,993.36
2023-04-02T02:22:29.171Z,993.46
2023-04-02T02:23:29.172Z,993.46
2023-04-02T02:24:29.163Z,993.52
2023-04-02T02:25:29.176Z,993.49
2023-04-02T02:26:29.178Z,993.54
2023-04-02T02:27:29.127Z,993.53
2023-04-02T02:28:29.100Z,993.56
2023-04-02T02:29:29.130Z,993.60
2023-04-02T02:30:29.095Z,993.60
2023-04-02T02:31:29.132Z,993.65
2023-04-02T02:32:29.113Z,993.66
2023-04-02T02:33:29.043Z,993.67
2023-04-02T02:34:29.084Z,993.71
2023-04-02T02:35:29.040Z,993.70
2023-04-02T02:36:29.071Z,993.74
2023-04-02T02:37:29.017Z,993.76
2023-04-02T02:38:28.988Z,993.80
2023-04-02T02:39:28.989Z,993.75
2023-04-02T02:40:29.028Z,993.81
2023-04-02T02:41:28.989Z,993.84
2023-04-02T02:42:28.969Z,993.89
2023-04-02T02:43:28.939Z,993.86
2023-04-02T02:44:28.945Z,993.91
2023-04-02T02:45:28.921Z,993.97
2023-04-02T02:46:29.013Z,993.99
2023-04-02T02:47:28.918Z,994.01
2023-04-02T02:48:28.878Z,994.10
2023-04-02T02:49:28.860Z,994.15
2023-04-02T02:50:28.864Z,994.15
2023-04-02T02:51:28.843Z,994.15
2023-04-02T02:52:28.859Z,994.14
2023-04-02T02:53:28.809Z,994.21
2023-04-02T02:54:28.818Z,994.23
2023-04-02T02:55:28.797Z,994.20
2023-04-02T02:56:28.772Z,994.24
2023-04-02T02:57:29.024Z,994.23
2023-04-02T02:58:28.787Z,994.25
2023-04-02T02:59:28.729Z,994.24
2023-04-02T03:00:28.730Z,994.27
2023-04-02T03:01:28.788Z,994.33
2023-04-02T03:02:28.798Z,994.34
2023-04-02T03:03:28.825Z,994.34
2023-04-02T03:04:28.748Z,994.38
2023-04-02T03:05:28.734Z,994.35
2023-04-02T03:06:28.657Z,994.39
2023-04-02T03:07:28.659Z,994.45
2023-04-02T03:08:28.651Z,994.39
2023-04-02T03:09:28.612Z,994.54
2023-04-02T03:10:28.642Z,994.51
2023-04-02T03:11:28.601Z,994.52
2023-04-02T03:12:28.598Z,994.57
2023-04-02T03:13:28.581Z,994.58
2023-04-02T03:14:28.586Z,994.57
2023-04-02T03:15:28.636Z,994.58
2023-04-02T03:16:28.524Z,994.62
2023-04-02T03:17:28.579Z,994.62
2023-04-02T03:18:28.523Z,994.60
2023-04-02T03:19:28.494Z,994.67
2023-04-02T03:20:28.501Z,994.67
2023-04-02T03:21:28.507Z,994.64
2023-04-02T03:22:28.559Z,994.68
2023-04-02T03:23:28.448Z,994.68
2023-04-02T03:24:28.457Z,994.68
2023-04-02T03:25:28.436Z,994.71
2023-04-02T03:26:28.427Z,994.74
2023-04-02T03:27:28.457Z,994.75
2023-04-02T03:28:28.449Z,994.75
2023-04-02T03:29:28.397Z,994.82
2023-04-02T03:30:28.403Z,994.82
2023-04-02T03:31:28.397Z,994.93
2023-04-02T03:32:28.370Z,994.87
2023-04-02T03:33:28.328Z,994.92
2023-04-02T03:34:28.326Z,994.91
2023-04-02T03:35:28.353Z,994.95
2023-04-02T03:36:28.292Z,994.92
2023-04-02T03:37:28.301Z,994.91
2023-04-02T03:38:28.290Z,994.95
2023-04-02T03:39:28.276Z,994.98
2023-04-02T03:40:28.297Z,995.00
2023-04-02T03:41:28.264Z,994.96
2023-04-02T03:42:28.241Z,995.03
2023-04-02T03:43:28.219Z,995.12
2023-04-02T03:44:28.197Z,995.12
2023-04-02T03:45:28.204Z,995.16
2023-04-02T03:46:28.246Z,995.17
2023-04-02T03:47:28.269Z,995.21
2023-04-02T03:48:28.154Z,995.24
2023-04-02T03:49:28.133Z,995.21
2023-04-02T03:50:28.142Z,995.24
2023-04-02T03:51:28.142Z,995.31
2023-04-02T03:52:28.136Z,995.29
2023-04-02T03:53:28.146Z,995.29
2023-04-02T03:54:28.147Z,995.33
2023-04-02T03:55:28.101Z,995.38
2023-04-02T03:56:28.086Z,995.36
2023-04-02T03:57:28.118Z,995.38
2023-04-02T03:58:28.044Z,995.45
2023-04-02T03:59:28.088Z,995.44
2023-04-02T04:00:28.026Z,995.47
2023-04-02T04:01:27.998Z,995.46
2023-04-02T04:02:28.065Z,995.53
2023-04-02T04:03:28.007Z,995.57
2023-04-02T04:04:28.006Z,995.60
2023-04-02T04:05:27.959Z,995.55
2023-04-02T04:06:27.943Z,995.60
2023-04-02T04:07:27.949Z,995.63
2023-04-02T04:08:27.901Z,995.64
2023-04-02T04:09:27.931Z,995.61
2023-04-02T04:10:27.882Z,995.71
2023-04-02T04:11:27.974Z,995.75
2023-04-02T04:12:27.903Z,995.75
2023-04-02T04:13:27.877Z,995.78
2023-04-02T04:14:27.876Z,995.80
2023-04-02T04:15:27.893Z,995.84
2023-04-02T04:16:27.855Z,995.87
2023-04-02T04:17:27.842Z,995.89
2023-04-02T04:18:27.814Z,995.88
2023-04-02T04:19:27.834Z,995.92
2023-04-02T04:20:27.776Z,995.91
2023-04-02T04:21:27.788Z,995.92
2023-04-02T04:22:27.766Z,995.98
2023-04-02T04:23:27.747Z,996.00
2023-04-02T04:24:27.717Z,996.06
2023-04-02T04:25:27.763Z,996.01
2023-04-02T04:26:27.716Z,996.07
2023-04-02T04:27:27.688Z,996.19
2023-04-02T04:28:27.694Z,996.14
2023-04-02T04:29:27.668Z,996.11
2023-04-02T04:30:27.650Z,996.18
2023-04-02T04:31:27.728Z,996.16
2023-04-02T04:32:27.908Z,996.23
2023-04-02T04:33:27.620Z,996.25
2023-04-02T04:34:27.626Z,996.21
2023-04-02T04:35:27.660Z,996.30
2023-04-02T04:36:27.616Z,996.36
2023-04-02T04:37:27.579Z,996.31
2023-04-02T04:38:27.610Z,996.38
2023-04-02T04:39:27.574Z,996.43
2023-04-02T04:40:27.563Z,996.49
2023-04-02T04:41:27.536Z,996.51
2023-04-02T04:42:27.541Z,996.54
2023-04-02T04:43:27.526Z,996.48
2023-04-02T04:44:27.523Z,996.57
2023-04-02T04:45:27.467Z,996.56
2023-04-02T04:46:27.551Z,996.64
2023-04-02T04:47:27.509Z,996.61
2023-04-02T04:48:27.464Z,996.64
2023-04-02T04:49:27.439Z,996.72
2023-04-02T04:50:27.465Z,996.68
2023-04-02T04:51:27.431Z,996.72
2023-04-02T04:52:27.387Z,996.78
2023-04-02T04:53:27.386Z,996.81
2023-04-02T04:54:27.375Z,996.85
2023-04-02T04:55:27.376Z,996.85
2023-04-02T04:56:27.337Z,996.87
2023-04-02T04:57:27.442Z,996.92
2023-04-02T04:58:27.321Z,996.88
2023-04-02T04:59:27.381Z,996.92
2023-04-02T05:00:27.345Z,996.93
2023-04-02T05:01:27.396Z,996.96
2023-04-02T05:02:27.324Z,997.04
2023-04-02T05:03:27.318Z,996.98
2023-04-02T05:04:27.288Z,997.05
2023-04-02T05:05:27.291Z,997.11
2023-04-02T05:06:27.351Z,997.15
2023-04-02T05:07:27.240Z,997.11
2023-04-02T05:08:27.230Z,997.09
2023-04-02T05:09:27.215Z,997.13
2023-04-02T05:10:27.190Z,997.12
2023-04-02T05:11:27.179Z,997.12
2023-04-02T05:12:27.168Z,997.20
2023-04-02T05:13:27.176Z,997.19
2023-04-02T05:14:27.123Z,997.22
2023-04-02T05:15:27.129Z,997.26
2023-04-02T05:16:27.214Z,997.22
2023-04-02T05:17:27.169Z,997.29
2023-04-02T05:18:27.106Z,997.34
2023-04-02T05:19:27.117Z,997.32
2023-04-02T05:20:27.077Z,997.33
2023-04-02T05:21:27.069Z,997.32
2023-04-02T05:22:27.073Z,997.38
2023-04-02T05:23:27.061Z,997.41
2023-04-02T05:24:27.061Z,997.37
2023-04-02T05:25:27.022Z,997.43
2023-04-02T05:26:26.973Z,997.41
2023-04-02T05:27:27.007Z,997.52
2023-04-02T05:28:26.973Z,997.50
2023-04-02T05:29:26.947Z,997.46
2023-04-02T05:30:26.969Z,997.45
2023-04-02T05:31:27.001Z,997.49
2023-04-02T05:32:26.943Z,997.52
2023-04-02T05:33:26.985Z,997.56
2023-04-02T05:34:26.917Z,997.56
2023-04-02T05:35:26.882Z,997.65
2023-04-02T05:36:26.939Z,997.62
2023-04-02T05:37:26.868Z,997.70
2023-04-02T05:38:26.840Z,997.68
2023-04-02T05:39:26.913Z,997.66
2023-04-02T05:40:26.828Z,997.68
2023-04-02T05:41:26.877Z,997.72
2023-04-02T05:42:26.808Z,997.76
2023-04-02T05:43:26.796Z,997.73
2023-04-02T05:44:26.776Z,997.74
2023-04-02T05:45:26.798Z,997.79
2023-04-02T05:46:26.835Z,997.81
2023-04-02T05:47:26.765Z,997.81
2023-04-02T05:48:26.731Z,997.87
2023-04-02T05:49:26.768Z,997.88
2023-04-02T05:50:26.729Z,997.88
2023-04-02T05:51:26.698Z,997.95
2023-04-02T05:52:26.689Z,997.90
2023-04-02T05:53:26.675Z,997.90
2023-04-02T05:54:26.661Z,997.97
2023-04-02T05:55:26.672Z,997.99
2023-04-02T05:56:26.635Z,997.97
2023-04-02T05:57:39.513Z,998.00
2023-04-02T05:59:26.625Z,998.03
2023-04-02T06:00:26.602Z,998.03
2023-04-02T06:01:26.553Z,998.03
2023-04-02T06:02:26.655Z,998.13
2023-04-02T06:03:26.639Z,998.13
2023-04-02T06:04:26.546Z,998.16
2023-04-02T06:05:26.565Z,998.18
2023-04-02T06:06:26.546Z,998.11
2023-04-02T06:07:26.504Z,998.17
2023-04-02T06:08:26.499Z,998.21
2023-04-02T06:09:26.481Z,998.22
2023-04-02T06:10:26.494Z,998.22
2023-04-02T06:11:26.455Z,998.24
2023-04-02T06:12:26.518Z,998.24
2023-04-02T06:13:26.426Z,998.28
2023-04-02T06:14:26.453Z,998.34
2023-04-02T06:15:26.397Z,998.34
2023-04-02T06:16:26.431Z,998.32
2023-04-02T06:17:26.432Z,998.37
2023-04-02T06:18:26.383Z,998.44
2023-04-02T06:19:26.361Z,998.46
2023-04-02T06:20:26.371Z,998.49
2023-04-02T06:21:26.338Z,998.51
2023-04-02T06:22:26.325Z,998.47
2023-04-02T06:23:26.296Z,998.51
2023-04-02T06:24:26.336Z,998.47
2023-04-02T06:25:26.304Z,998.50
2023-04-02T06:26:26.278Z,998.54
2023-04-02T06:27:26.261Z,998.60
2023-04-02T06:28:26.268Z,998.64
2023-04-02T06:29:26.247Z,998.63
2023-04-02T06:30:26.283Z,998.64
2023-04-02T06:31:26.302Z,998.72
2023-04-02T06:32:26.249Z,998.76
2023-04-02T06:33:26.178Z,998.78
2023-04-02T06:34:26.182Z,998.81
2023-04-02T06:35:26.183Z,998.79
2023-04-02T06:36:26.185Z,998.81
2023-04-02T06:37:26.131Z,998.83
2023-04-02T06:38:26.125Z,998.83
2023-04-02T06:39:26.165Z,998.90
2023-04-02T06:40:26.150Z,998.94
2023-04-02T06:41:26.098Z,998.95
2023-04-02T06:42:26.083Z,998.97
2023-04-02T06:43:26.097Z,998.98
2023-04-02T06:44:26.086Z,999.02
2023-04-02T06:45:26.030Z,999.05
2023-04-02T06:46:26.159Z,999.06
2023-04-02T06:47:26.062Z,999.11
2023-04-02T06:48:26.014Z,999.10
2023-04-02T06:49:26.011Z,999.15
2023-04-02T06:50:25.994Z,999.16
2023-04-02T06:51:25.998Z,999.20
2023-04-02T06:52:25.983Z,999.26
2023-04-02T06:53:25.970Z,999.28
2023-04-02T06:54:25.964Z,999.23
2023-04-02T06:55:25.976Z,999.26
2023-04-02T06:56:25.962Z,999.29
2023-04-02T06:57:25.922Z,999.23
2023-04-02T06:58:25.905Z,999.48
2023-04-02T06:59:25.884Z,999.48
2023-04-02T07:00:25.888Z,999.50
2023-04-02T07:01:25.897Z,999.44
2023-04-02T07:02:25.885Z,999.55
2023-04-02T07:03:25.819Z,999.55
2023-04-02T07:04:25.822Z,999.52
2023-04-02T07:05:25.818Z,999.57
2023-04-02T07:06:25.794Z,999.64
2023-04-02T07:07:25.838Z,999.60
2023-04-02T07:08:25.771Z,999.64
2023-04-02T07:09:25.777Z,999.64
2023-04-02T07:10:25.785Z,999.68
2023-04-02T07:11:25.729Z,999.67
2023-04-02T07:12:25.772Z,999.71
2023-04-02T07:13:25.705Z,999.76
2023-04-02T07:14:25.698Z,999.76
2023-04-02T07:15:25.681Z,999.79
2023-04-02T07:16:25.787Z,999.76
2023-04-02T07:17:25.671Z,999.78
2023-04-02T07:18:25.664Z,999.82
2023-04-02T07:19:25.630Z,999.86
2023-04-02T07:20:25.614Z,999.86
2023-04-02T07:21:25.658Z,999.87
2023-04-02T07:22:25.604Z,999.95
2023-04-02T07:23:25.617Z,999.91
2023-04-02T07:24:25.590Z,999.94
2023-04-02T07:25:25.562Z,1000.01
2023-04-02T07:26:25.554Z,999.98
2023-04-02T07:27:25.542Z,1000.07
2023-04-02T07:28:25.657Z,1000.05
2023-04-02T07:29:25.548Z,1000.05
2023-04-02T07:30:25.499Z,1000.07
2023-04-02T07:31:25.541Z,1000.12
2023-04-02T07:32:25.484Z,1000.13
2023-04-02T07:33:25.453Z,1000.11
2023-04-02T07:34:25.498Z,1000.16
2023-04-02T07:35:25.424Z,1000.15
2023-04-02T07:36:25.416Z,1000.20
2023-04-02T07:37:25.417Z,1000.25
2023-04-02T07:38:25.439Z,1000.24
2023-04-02T07:39:25.414Z,1000.25
2023-04-02T07:40:25.377Z,1000.20
2023-04-02T07:41:25.374Z,1000.29
2023-04-02T07:42:25.365Z,1000.33
2023-04-02T07:43:25.349Z,1000.32
2023-04-02T07:44:25.347Z,1000.33
2023-04-02T07:45:25.336Z,1000.32
2023-04-02T07:46:25.301Z,1000.41
2023-04-02T07:47:25.317Z,1000.36
2023-04-02T07:48:25.303Z,1000.43
2023-04-02T07:49:25.281Z,1000.37
2023-04-02T07:50:25.307Z,1000.42
2023-04-02T07:51:25.269Z,1000.45
2023-04-02T07:52:25.241Z,1000.45
2023-04-02T07:53:25.228Z,1000.43
2023-04-02T07:54:25.240Z,1000.52
2023-04-02T07:55:25.229Z,1000.49
2023-04-02T07:56:25.243Z,1000.55
2023-04-02T07:57:25.272Z,1000.56
2023-04-02T07:58:25.168Z,1000.62
2023-04-02T07:59:25.144Z,1000.59
2023-04-02T08:00:25.143Z,1000.62
2023-04-02T08:01:25.130Z,1000.67
2023-04-02T08:02:25.162Z,1000.73
2023-04-02T08:03:25.186Z,1000.74
2023-04-02T08:04:25.186Z,1000.76
2023-04-02T08:05:25.136Z,1000.75
2023-04-02T08:06:25.067Z,1000.79
2023-04-02T08:07:25.050Z,1000.77
2023-04-02T08:08:25.026Z,1000.83
2023-04-02T08:09:25.172Z,1000.89
2023-04-02T08:10:25.020Z,1000.86
2023-04-02T08:11:25.044Z,1000.88
2023-04-02T08:12:25.017Z,1000.95
2023-04-02T08:13:24.990Z,1000.95
2023-04-02T08:14:24.988Z,1000.98
2023-04-02T08:15:25.055Z,1000.97
2023-04-02T08:16:24.992Z,1001.02
2023-04-02T08:17:25.014Z,1001.05
2023-04-02T08:18:24.950Z,1001.06
2023-04-02T08:19:24.898Z,1001.06
2023-04-02T08:20:24.909Z,1001.07
2023-04-02T08:21:24.951Z,1001.15
2023-04-02T08:22:24.903Z,1001.10
2023-04-02T08:23:24.888Z,1001.09
2023-04-02T08:24:24.878Z,1001.19
2023-04-02T08:25:24.852Z,1001.16
2023-04-02T08:26:24.848Z,1001.16
2023-04-02T08:27:24.834Z,1001.22
2023-04-02T08:28:24.809Z,1001.20
2023-04-02T08:29:24.814Z,1001.24
2023-04-02T08:30:24.770Z,1001.27
2023-04-02T08:31:24.821Z,1001.31
2023-04-02T08:32:24.768Z,1001.30
2023-04-02T08:33:24.763Z,1001.31
2023-04-02T08:34:24.754Z,1001.28
2023-04-02T08:35:24.717Z,1001.35
2023-04-02T08:36:24.761Z,1001.41
2023-04-02T08:37:24.697Z,1001.43
2023-04-02T08:38:24.688Z,1001.35
2023-04-02T08:39:24.710Z,1001.41
2023-04-02T08:40:24.665Z,1001.42
2023-04-02T08:41:24.661Z,1001.47
2023-04-02T08:42:24.699Z,1001.50
2023-04-02T08:43:24.645Z,1001.51
2023-04-02T08:44:24.637Z,1001.60
2023-04-02T08:45:25.584Z,1001.58
2023-04-02T08:46:24.670Z,1001.61
2023-04-02T08:47:24.593Z,1001.63
2023-04-02T08:48:24.570Z,1001.64
2023-04-02T08:49:24.545Z,1001.65
2023-04-02T08:50:24.589Z,1001.68
2023-04-02T08:51:24.538Z,1001.72
2023-04-02T08:52:24.527Z,1001.74
2023-04-02T08:53:24.550Z,1001.73
2023-04-02T08:54:24.511Z,1001.79
2023-04-02T08:55:24.528Z,1001.78
2023-04-02T08:56:24.472Z,1001.88
2023-04-02T08:57:24.496Z,1001.88
2023-04-02T08:58:24.448Z,1001.88
2023-04-02T08:59:24.422Z,1001.89
2023-04-02T09:00:24.473Z,1001.91
2023-04-02T09:01:24.459Z,1001.95
2023-04-02T09:02:24.485Z,1001.94
2023-04-02T09:03:24.408Z,1001.97
2023-04-02T09:04:24.391Z,1001.99
2023-04-02T09:05:24.384Z,1001.97
2023-04-02T09:06:24.339Z,1001.99
2023-04-02T09:07:24.339Z,1001.96
2023-04-02T09:08:24.359Z,1002.00
2023-04-02T09:09:24.303Z,1001.98
2023-04-02T09:10:24.313Z,1002.04
2023-04-02T09:11:24.319Z,1002.08
2023-04-02T09:12:24.292Z,1002.06
2023-04-02T09:13:24.301Z,1002.11
2023-04-02T09:14:24.267Z,1002.11
2023-04-02T09:15:24.244Z,1002.13
2023-04-02T09:16:24.279Z,1002.10
2023-04-02T09:17:24.231Z,1002.14
2023-04-02T09:18:24.295Z,1002.21
2023-04-02T09:19:24.187Z,1002.14
2023-04-02T09:20:24.200Z,1002.17
2023-04-02T09:21:24.163Z,1002.22
2023-04-02T09:22:24.162Z,1002.26
2023-04-02T09:23:24.202Z,1002.23
2023-04-02T09:24:24.154Z,1002.26
2023-04-02T09:25:24.162Z,1002.35
2023-04-02T09:26:24.173Z,1002.33
2023-04-02T09:27:24.099Z,1002.33
2023-04-02T09:28:24.091Z,1002.34
2023-04-02T09:29:24.083Z,1002.37
2023-04-02T09:30:24.070Z,1002.34
2023-04-02T09:31:24.133Z,1002.24
2023-04-02T09:32:24.100Z,1002.26
2023-04-02T09:33:24.041Z,1002.30
2023-04-02T09:34:24.018Z,1002.35
2023-04-02T09:35:36.383Z,1002.32
2023-04-02T09:36:25.072Z,1002.35
2023-04-02T09:37:23.971Z,1002.38
2023-04-02T09:38:23.964Z,1002.37
2023-04-02T09:39:23.987Z,1002.37
2023-04-02T09:40:23.970Z,1002.43
2023-04-02T09:41:23.939Z,1002.51
2023-04-02T09:42:23.945Z,1002.44
2023-04-02T09:43:23.955Z,1002.48
2023-04-02T09:44:23.926Z,1002.54
2023-04-02T09:45:23.932Z,1002.58
2023-04-02T09:46:23.950Z,1002.59
2023-04-02T09:47:23.904Z,1002.55
2023-04-02T09:48:23.876Z,1002.63
2023-04-02T09:49:23.845Z,1002.63
2023-04-02T09:50:23.900Z,1002.66
2023-04-02T09:51:23.862Z,1002.67
2023-04-02T09:52:23.820Z,1002.67
2023-04-02T09:53:23.795Z,1002.72
2023-04-02T09:54:23.786Z,1002.75
2023-04-02T09:55:23.782Z,1002.79
2023-04-02T09:56:23.824Z,1002.84
2023-04-02T09:57:24.037Z,1002.90
2023-04-02T09:58:23.716Z,1002.91
2023-04-02T09:59:23.729Z,1002.89
2023-04-02T10:01:23.776Z,1002.86
2023-04-02T10:02:23.733Z,1002.86
2023-04-02T10:03:23.711Z,1002.89
2023-04-02T10:04:26.254Z,1002.87
2023-04-02T10:05:38.903Z,1002.85
2023-04-02T10:06:24.653Z,1002.93
2023-04-02T10:07:23.638Z,1002.95
2023-04-02T10:08:23.599Z,1002.95
2023-04-02T10:09:23.664Z,1003.02
2023-04-02T10:10:25.249Z,1003.00
2023-04-02T10:11:26.806Z,1002.99
2023-04-02T10:12:24.561Z,1003.00
2023-04-02T10:13:23.619Z,1003.06
2023-04-02T10:14:23.546Z,1003.07
2023-04-02T10:15:23.552Z,1003.15
2023-04-02T10:16:24.994Z,1003.18
2023-04-02T10:17:23.551Z,1003.19
2023-04-02T10:18:23.512Z,1003.18
2023-04-02T10:19:23.472Z,1003.26
2023-04-02T10:20:23.496Z,1003.27
2023-04-02T10:21:23.454Z,1003.22
2023-04-02T10:22:23.446Z,1003.24
2023-04-02T10:23:23.461Z,1003.22
2023-04-02T10:24:23.427Z,1003.31
2023-04-02T10:25:23.398Z,1003.24
2023-04-02T10:26:23.433Z,1003.22
2023-04-02T10:27:23.390Z,1003.23
2023-04-02T10:28:23.374Z,1003.24
2023-04-02T10:29:23.378Z,1003.27
2023-04-02T10:30:23.362Z,1003.23
2023-04-02T10:31:23.432Z,1003.26
2023-04-02T10:32:23.336Z,1003.29
2023-04-02T10:33:23.354Z,1003.27
2023-04-02T10:34:23.303Z,1003.36
2023-04-02T10:35:23.352Z,1003.38
2023-04-02T10:36:23.313Z,1003.35
2023-04-02T10:37:23.269Z,1003.39
2023-04-02T10:38:23.259Z,1003.40
2023-04-02T10:39:23.328Z,1003.37
2023-04-02T10:40:23.255Z,1003.43
2023-04-02T10:41:23.262Z,1003.42
2023-04-02T10:42:23.191Z,1003.36
2023-04-02T10:43:23.405Z,1003.44
2023-04-02T10:44:23.214Z,1003.48
2023-04-02T10:45:23.154Z,1003.50
2023-04-02T10:46:25.392Z,1003.50
2023-04-02T10:47:23.186Z,1003.52
2023-04-02T10:48:23.148Z,1003.55
2023-04-02T10:49:23.120Z,1003.57
2023-04-02T10:50:23.106Z,1003.60
2023-04-02T10:51:23.118Z,1003.62
2023-04-02T10:52:23.098Z,1003.71
2023-04-02T10:53:23.260Z,1003.71
2023-04-02T10:54:23.071Z,1003.75
2023-04-02T10:55:23.059Z,1003.71
2023-04-02T10:56:23.076Z,1003.72
2023-04-02T10:57:23.086Z,1003.68
2023-04-02T10:58:23.066Z,1003.69
2023-04-02T10:59:23.011Z,1003.72
2023-04-02T11:00:22.992Z,1003.73
2023-04-02T11:01:23.007Z,1003.74
2023-04-02T11:02:23.066Z,1003.74
2023-04-02T11:03:23.085Z,1003.77
2023-04-02T11:04:22.947Z,1003.79
2023-04-02T11:05:22.918Z,1003.80
2023-04-02T11:06:22.935Z,1003.85
2023-04-02T11:07:22.939Z,1003.86
2023-04-02T11:08:22.932Z,1003.94
2023-04-02T11:09:22.891Z,1003.90
2023-04-02T11:10:22.874Z,1003.92
2023-04-02T11:11:22.869Z,1003.96
2023-04-02T11:12:22.911Z,1003.90
2023-04-02T11:13:22.955Z,1003.89
2023-04-02T11:14:22.831Z,1003.89
2023-04-02T11:15:22.839Z,1003.95
2023-04-02T11:16:22.852Z,1003.95
2023-04-02T11:17:22.827Z,1003.99
2023-04-02T11:18:22.797Z,1003.94
2023-04-02T11:19:22.795Z,1003.94
2023-04-02T11:20:22.756Z,1003.93
2023-04-02T11:21:22.781Z,1003.96
2023-04-02T11:22:22.720Z,1003.98
2023-04-02T11:23:22.817Z,1004.00
2023-04-02T11:24:22.709Z,1003.98
2023-04-02T11:25:22.726Z,1004.06
2023-04-02T11:26:22.724Z,1004.01
2023-04-02T11:27:22.741Z,1004.06
2023-04-02T11:28:23.961Z,1004.08
2023-04-02T11:29:22.647Z,1004.08
2023-04-02T11:30:22.629Z,1004.09
2023-04-02T11:31:22.682Z,1004.12
2023-04-02T11:32:22.733Z,1004.01
2023-04-02T11:33:34.082Z,1004.10
2023-04-02T11:34:23.602Z,1004.01
2023-04-02T11:35:22.575Z,1004.06
2023-04-02T11:36:22.599Z,1004.12
2023-04-02T11:37:22.528Z,1004.15
2023-04-02T11:38:22.602Z,1004.16
2023-04-02T11:39:22.532Z,1004.16
2023-04-02T11:40:22.537Z,1004.19
2023-04-02T11:41:22.498Z,1004.23
2023-04-02T11:42:22.515Z,1004.23
2023-04-02T11:43:22.460Z,1004.25
2023-04-02T11:44:22.479Z,1004.28
2023-04-02T11:45:22.476Z,1004.26
2023-04-02T11:46:22.499Z,1004.33
2023-04-02T11:47:22.476Z,1004.29
2023-04-02T11:48:22.403Z,1004.36
2023-04-02T11:49:22.423Z,1004.40
2023-04-02T11:50:22.408Z,1004.39
2023-04-02T11:51:22.446Z,1004.43
2023-04-02T11:52:22.384Z,1004.44
2023-04-02T11:53:22.343Z,1004.48
2023-04-02T11:54:22.351Z,1004.44
2023-04-02T11:55:22.339Z,1004.50
2023-04-02T11:56:22.332Z,1004.44
2023-04-02T11:57:22.344Z,1004.45
2023-04-02T11:58:22.295Z,1004.45
2023-04-02T11:59:22.260Z,1004.48
2023-04-02T12:00:22.271Z,1004.46
2023-04-02T12:01:22.247Z,1004.44
2023-04-02T12:02:22.304Z,1004.43
2023-04-02T12:03:22.281Z,1004.45
2023-04-02T12:04:22.207Z,1004.48
2023-04-02T12:05:22.222Z,1004.47
2023-04-02T12:06:22.224Z,1004.53
2023-04-02T12:07:22.199Z,1004.46
2023-04-02T12:08:22.161Z,1004.50
2023-04-02T12:09:22.208Z,1004.47
2023-04-02T12:10:22.167Z,1004.49
2023-04-02T12:11:22.127Z,1004.47
2023-04-02T12:12:22.142Z,1004.49
2023-04-02T12:13:22.104Z,1004.43
2023-04-02T12:14:22.124Z,1004.38
2023-04-02T12:15:22.079Z,1004.46
2023-04-02T12:16:22.088Z,1004.45
2023-04-02T12:17:22.226Z,1004.51
2023-04-02T12:18:22.089Z,1004.55
2023-04-02T12:19:22.068Z,1004.56
2023-04-02T12:20:22.044Z,1004.59
2023-04-02T12:21:21.997Z,1004.61